Time;durP1;ratioP1;P1;durP2;ratioP2;P2;SDS_P1;SDS_P2;PMS_P1;PMS_P2;Temp;Humidity;BMP_temperature;BMP_pressure;BME280_temperature;BME280_humidity;BME280_pressure;Samples;Min_cycle;Max_cycle;Signal;HPM_P1;HPM_P2
2021/06/21 10:54:25;;;;;;;4.97;3.53;;;;;;;34.23;34.15;99968.84;1762022;79;22755;-77
2021/06/21 10:56:57;;;;;;;4.67;2.98;;;;;;;34.21;34.09;99972.23;1736880;81;20975;-77
2021/06/21 10:59:27;;;;;;;5.62;3.35;;;;;;;34.26;34.13;99966.28;1742462;81;20874;-77
2021/06/21 11:01:58;;;;;;;10.40;3.42;;;;;;;34.29;34.02;99976.63;1739113;81;20937;-77
2021/06/21 11:04:39;;;;;;;5.92;4.10;;;;;;;34.29;33.90;99968.06;1684657;81;1998466;-76
2021/06/21 11:07:17;;;;;;;5.45;2.87;;;;;;;34.27;33.77;99966.08;1604630;88;20946;-77
2021/06/21 11:09:49;;;;;;;4.95;2.65;;;;;;;34.25;33.79;99951.20;1598285;88;20965;-77
2021/06/21 11:12:33;;;;;;;4.67;2.70;;;;;;;34.30;33.62;99947.42;1597770;88;20935;-77
2021/06/21 11:15:11;;;;;;;7.33;2.50;;;;;;;34.27;33.47;99940.58;1625112;87;20969;-77
2021/06/21 11:17:54;;;;;;;4.67;2.67;;;;;;;34.25;33.32;99937.27;1625033;85;21008;-76
2021/06/21 11:20:41;;;;;;;5.42;2.52;;;;;;;34.24;33.18;99932.09;1618002;87;20981;-77
2021/06/21 11:23:10;;;;;;;4.67;2.60;;;;;;;34.17;33.05;99928.84;1615867;87;20985;-77
2021/06/21 11:25:49;;;;;;;4.80;2.52;;;;;;;34.13;33.00;99931.59;1595413;88;20967;-77
2021/06/21 11:28:50;;;;;;;4.67;3.00;;;;;;;34.13;32.93;99931.59;1616714;88;21056;-77
2021/06/21 11:31:26;;;;;;;5.22;2.92;;;;;;;34.11;32.87;99932.30;1610285;88;20974;-77
2021/06/21 11:33:58;;;;;;;6.87;2.42;;;;;;;34.08;32.78;99929.17;1610939;87;20971;-77
2021/06/21 11:36:41;;;;;;;3.85;2.42;;;;;;;34.08;32.54;99928.66;1589659;88;21149;-77
2021/06/21 11:39:30;;;;;;;3.33;2.47;;;;;;;34.02;32.46;99917.86;1594562;88;21098;-77
2021/06/21 11:42:02;;;;;;;5.45;2.42;;;;;;;34.07;32.42;99906.04;1594072;88;21332;-77
2021/06/21 11:44:44;;;;;;;6.33;2.80;;;;;;;34.17;32.38;99908.71;1615502;87;21007;-77
2021/06/21 11:47:32;;;;;;;5.65;3.58;;;;;;;34.27;32.27;99904.34;1618699;87;21110;-77
2021/06/21 11:50:00;;;;;;;3.90;2.65;;;;;;;34.28;32.10;99903.33;1618405;87;21065;-77
2021/06/21 11:52:28;;;;;;;4.33;2.83;;;;;;;34.16;32.01;99907.56;1611590;87;21091;-77
2021/06/21 11:54:55;;;;;;;3.50;3.20;;;;;;;34.15;32.04;99911.27;1618758;87;21056;-77
2021/06/21 11:57:25;;;;;;;5.05;2.70;;;;;;;34.18;32.05;99910.37;1623032;88;20983;-77
2021/06/21 11:59:52;;;;;;;10.88;2.80;;;;;;;34.22;32.02;99907.30;1621406;88;20995;-77
2021/06/21 12:02:24;;;;;;;6.22;3.20;;;;;;;34.28;31.96;99909.20;1580921;87;21557;-76
2021/06/21 12:04:54;;;;;;;7.28;2.95;;;;;;;34.25;31.80;99900.20;1619764;87;21075;-77
2021/06/21 12:07:41;;;;;;;6.53;2.72;;;;;;;34.22;31.79;99900.08;1608476;87;21590;-77
2021/06/21 12:10:15;;;;;;;4.70;2.55;;;;;;;34.27;31.84;99901.66;1612136;87;21074;-76
2021/06/21 12:12:47;;;;;;;6.53;2.22;;;;;;;34.38;31.78;99903.81;1605790;87;21139;-76
2021/06/21 12:15:28;;;;;;;7.55;2.62;;;;;;;34.46;31.67;99900.14;1602540;87;21151;-77
2021/06/21 12:17:55;;;;;;;5.22;2.62;;;;;;;34.46;31.47;99905.52;1624627;86;22318;-77
2021/06/21 12:20:22;;;;;;;3.98;2.20;;;;;;;34.37;31.26;99895.44;1615184;87;21549;-77
2021/06/21 12:23:11;;;;;;;5.22;2.37;;;;;;;34.32;31.26;99890.34;1599131;87;21486;-77
2021/06/21 12:25:44;;;;;;;2.55;2.17;;;;;;;34.38;31.19;99892.24;1636020;86;21135;-77
2021/06/21 12:28:21;;;;;;;5.72;1.75;;;;;;;34.37;30.96;99886.05;1628756;86;20914;-77
2021/06/21 12:30:58;;;;;;;5.22;1.98;;;;;;;34.37;30.81;99887.90;1612258;88;21302;-77
2021/06/21 12:33:36;;;;;;;2.08;1.87;;;;;;;34.38;30.74;99882.84;1635504;86;21576;-76
2021/06/21 12:36:16;;;;;;;4.35;2.00;;;;;;;34.42;30.52;99884.11;1633445;86;22207;-77
2021/06/21 12:38:59;;;;;;;4.35;1.70;;;;;;;34.43;30.48;99879.06;1632278;87;21536;-77
2021/06/21 12:41:33;;;;;;;4.67;2.10;;;;;;;34.48;30.33;99881.98;1632592;86;21064;-77
2021/06/21 12:44:12;;;;;;;3.30;2.22;;;;;;;34.51;30.29;99883.77;1610623;87;21227;-77
2021/06/21 12:46:42;;;;;;;4.80;2.02;;;;;;;34.51;30.17;99889.14;1630639;87;21082;-77
2021/06/21 12:49:14;;;;;;;3.15;2.15;;;;;;;34.55;30.02;99882.03;1626819;86;22053;-77
2021/06/21 12:51:43;;;;;;;3.77;1.70;;;;;;;34.56;29.91;99885.03;1634966;86;21053;-77
2021/06/21 12:54:10;;;;;;;6.55;2.35;;;;;;;34.61;29.76;99881.23;1633142;87;20942;-77
2021/06/21 12:56:41;;;;;;;3.87;2.05;;;;;;;34.65;29.68;99883.33;1614450;88;20939;-76
2021/06/21 12:59:31;;;;;;;3.20;2.20;;;;;;;34.66;29.43;99883.64;1615436;87;20929;-77
2021/06/21 13:02:01;;;;;;;5.45;1.95;;;;;;;34.62;29.29;99887.75;1641788;86;20973;-77
2021/06/21 13:04:29;;;;;;;3.98;2.42;;;;;;;34.61;29.28;99887.95;1625096;87;20960;-77
2021/06/21 13:07:10;;;;;;;5.75;2.92;;;;;;;34.63;29.27;99875.98;1616030;88;20921;-76
2021/06/21 13:09:49;;;;;;;5.30;3.12;;;;;;;34.67;29.20;99874.56;1615753;88;20936;-77
2021/06/21 13:12:25;;;;;;;3.62;2.37;;;;;;;34.69;29.16;99871.67;1608302;89;20942;-77
2021/06/21 13:15:07;;;;;;;3.02;2.17;;;;;;;34.67;28.96;99883.13;1603783;89;20995;-76
2021/06/21 13:17:33;;;;;;;3.58;2.47;;;;;;;34.64;28.94;99881.67;1608215;88;20993;-76
2021/06/21 13:20:10;;;;;;;5.35;2.65;;;;;;;34.69;28.96;99886.45;1610578;87;20941;-77
2021/06/21 13:22:53;;;;;;;7.40;2.62;;;;;;;34.67;28.80;99895.22;1613807;86;20988;-77
2021/06/21 13:25:33;;;;;;;8.35;3.12;;;;;;;34.65;28.92;99891.91;1626413;86;21516;-77
2021/06/21 13:28:07;;;;;;;7.08;2.90;;;;;;;34.62;28.91;99886.92;1633400;86;20918;-77
2021/06/21 13:30:41;;;;;;;4.58;2.50;;;;;;;34.60;28.92;99889.81;1631142;86;20969;-77
2021/06/21 13:33:17;;;;;;;3.87;2.65;;;;;;;34.61;28.94;99883.92;1629008;87;20906;-77
2021/06/21 13:35:58;;;;;;;7.92;2.77;;;;;;;34.64;28.92;99892.41;1629341;86;20966;-77
2021/06/21 13:38:31;;;;;;;3.12;2.62;;;;;;;34.64;28.73;99893.75;1601147;87;20942;-77
2021/06/21 13:41:01;;;;;;;4.70;2.55;;;;;;;34.64;28.64;99892.93;1642150;85;20984;-77
2021/06/21 13:43:32;;;;;;;4.80;2.40;;;;;;;34.65;28.64;99890.56;1612572;87;20976;-76
2021/06/21 13:46:11;;;;;;;4.85;2.87;;;;;;;34.65;28.47;99890.05;1614255;86;20966;-76
2021/06/21 13:48:39;;;;;;;5.33;2.85;;;;;;;34.59;28.40;99894.03;1619721;85;22524;-77
2021/06/21 13:51:22;;;;;;;7.85;2.67;;;;;;;34.57;28.42;99894.23;1657346;84;21362;-76
2021/06/21 13:53:49;;;;;;;4.83;2.62;;;;;;;34.60;28.36;99893.84;1622539;86;21373;-76
2021/06/21 13:56:40;;;;;;;3.45;3.20;;;;;;;34.58;28.29;99890.52;1629948;86;20902;-77
2021/06/21 13:59:10;;;;;;;6.20;3.10;;;;;;;34.56;28.25;99887.71;1631521;86;20938;-77
2021/06/21 14:01:34;;;;;;;10.32;3.15;;;;;;;34.55;28.25;99886.89;1628306;87;20949;-77
2021/06/21 14:04:01;;;;;;;4.75;3.05;;;;;;;34.57;28.28;99892.89;1643233;86;21070;-76
2021/06/21 14:06:34;;;;;;;7.65;2.80;;;;;;;34.58;28.19;99893.20;1629436;86;20967;-77
2021/06/21 14:09:09;;;;;;;3.17;2.80;;;;;;;34.51;28.16;99894.50;1623786;86;20978;-77
2021/06/21 14:11:37;;;;;;;13.72;3.20;;;;;;;34.50;28.24;99892.84;1651525;85;21393;-77
2021/06/21 14:14:05;;;;;;;6.90;3.45;;;;;;;34.52;28.21;99885.42;1654053;85;21007;-77
2021/06/21 14:16:32;;;;;;;5.10;3.45;;;;;;;34.53;28.17;99883.56;1636619;86;20943;-77
2021/06/21 14:18:59;;;;;;;6.05;3.30;;;;;;;34.50;28.18;99881.27;1652362;86;20886;-77
2021/06/21 14:21:27;;;;;;;7.25;3.50;;;;;;;34.49;28.23;99884.98;1635020;86;20943;-77
2021/06/21 14:23:55;;;;;;;8.78;3.47;;;;;;;34.50;28.32;99879.42;1652821;86;20986;-77
2021/06/21 14:26:21;;;;;;;5.25;3.42;;;;;;;34.52;28.33;99888.11;1646180;85;21788;-77
2021/06/21 14:28:48;;;;;;;7.25;3.60;;;;;;;34.55;28.36;99890.91;1649741;85;20960;-77
2021/06/21 14:31:15;;;;;;;4.90;3.00;;;;;;;34.59;28.36;99886.80;1653397;86;20982;-77
2021/06/21 14:33:41;;;;;;;4.45;3.42;;;;;;;34.62;28.38;99886.92;1638989;86;21415;-77
2021/06/21 14:36:10;;;;;;;3.10;2.83;;;;;;;34.62;28.41;99885.06;1653858;86;20999;-77
2021/06/21 14:38:37;;;;;;;8.55;3.80;;;;;;;34.64;28.48;99878.16;1637189;86;21396;-77
2021/06/21 14:41:05;;;;;;;6.33;3.52;;;;;;;34.65;28.52;99884.67;1651383;85;21458;-77
2021/06/21 14:43:31;;;;;;;3.80;3.50;;;;;;;34.66;28.50;99884.16;1647778;85;20923;-76
2021/06/21 14:45:57;;;;;;;5.80;3.20;;;;;;;34.59;28.56;99879.27;1612819;85;20987;-77
2021/06/21 14:48:24;;;;;;;9.98;3.70;;;;;;;34.59;28.61;99879.27;1645819;85;20971;-77
2021/06/21 14:50:50;;;;;;;5.80;3.60;;;;;;;34.56;28.62;99874.29;1630629;85;25728;-77
2021/06/21 14:53:17;;;;;;;8.78;3.65;;;;;;;34.54;28.67;99874.48;1647735;85;21287;-77
2021/06/21 14:55:44;;;;;;;10.18;3.40;;;;;;;34.55;28.70;99873.97;1618468;86;20945;-77
2021/06/21 14:58:13;;;;;;;3.62;3.33;;;;;;;34.51;28.70;99871.68;1627041;86;21009;-77
2021/06/21 15:00:39;;;;;;;5.78;4.03;;;;;;;34.51;28.78;99863.63;1623714;86;20962;-76
2021/06/21 15:03:06;;;;;;;;;;;;;;;34.49;28.76;99862.16;1635030;86;20929;-77
2021/06/21 15:05:35;;;;;;;7.20;3.77;;;;;;;34.40;28.72;99857.98;1629032;86;20104;-77
2021/06/21 15:08:02;;;;;;;4.08;3.85;;;;;;;34.32;28.82;99855.45;1619416;86;20970;-76
2021/06/21 15:10:31;;;;;;;5.20;3.25;;;;;;;34.24;28.83;99848.88;1623349;86;20938;-77
2021/06/21 15:12:59;;;;;;;5.72;4.00;;;;;;;34.12;28.85;99852.11;1589999;88;21572;-77
2021/06/21 15:15:31;;;;;;;4.95;4.03;;;;;;;34.02;28.90;99858.84;1608161;86;21455;-77
2021/06/21 15:17:59;;;;;;;5.97;3.58;;;;;;;33.94;29.00;99856.30;1620903;86;20933;-77
2021/06/21 15:20:28;;;;;;;3.98;3.65;;;;;;;33.84;29.07;99856.11;1617608;86;21323;-77
2021/06/21 15:22:55;;;;;;;6.55;4.05;;;;;;;33.75;29.12;99855.93;1622874;86;20953;-77
2021/06/21 15:25:22;;;;;;;4.22;3.90;;;;;;;33.69;29.21;99854.02;1615516;86;21544;-76
2021/06/21 15:27:48;;;;;;;7.25;3.80;;;;;;;33.61;29.30;99861.36;1617715;86;20941;-75
2021/06/21 15:30:17;;;;;;;;;;;;;;;33.53;29.38;99856.45;1620598;86;20941;-75
2021/06/21 15:32:44;;;;;;;5.00;3.90;;;;;;;33.48;29.61;99861.55;1624702;86;20114;-76
2021/06/21 15:35:14;;;;;;;11.22;4.25;;;;;;;33.46;29.55;99852.86;1626477;86;20974;-77
2021/06/21 15:37:41;;;;;;;6.35;4.00;;;;;;;33.44;29.62;99844.70;1622729;86;21362;-76
2021/06/21 15:40:11;;;;;;;9.23;4.17;;;;;;;33.38;29.75;99834.73;1627330;86;20929;-77
2021/06/21 15:42:42;;;;;;;5.33;4.17;;;;;;;33.38;29.89;99846.80;1626345;86;20973;-76
2021/06/21 15:45:10;;;;;;;9.88;4.33;;;;;;;33.36;30.00;99848.33;1605733;86;21557;-76
2021/06/21 15:47:36;;;;;;;12.13;4.42;;;;;;;33.38;30.13;99846.28;1627258;86;21473;-76
2021/06/21 15:50:06;;;;;;;8.03;4.03;;;;;;;33.37;30.20;99845.14;1619352;86;21609;-76
2021/06/21 15:52:33;;;;;;;15.28;4.97;;;;;;;33.36;30.27;99847.50;1624010;86;21407;-76
2021/06/21 15:55:10;;;;;;;4.72;3.92;;;;;;;33.35;30.44;99842.65;1628296;86;20918;-76
2021/06/21 15:57:28;;;;;;;5.95;4.45;;;;;;;33.38;30.58;99845.45;1636897;86;21347;-76
2021/06/21 15:59:54;;;;;;;8.15;4.92;;;;;;;33.38;30.68;99850.81;1648529;86;21458;-76
2021/06/21 16:02:21;;;;;;;11.63;5.10;;;;;;;33.35;30.76;99857.39;1607881;86;21455;-76
2021/06/21 16:04:47;;;;;;;6.72;4.85;;;;;;;33.28;30.92;99851.13;1644454;86;25525;-76
2021/06/21 16:07:14;;;;;;;9.25;4.67;;;;;;;33.21;31.09;99861.77;1649114;86;21467;-77
2021/06/21 16:09:40;;;;;;;12.37;6.05;;;;;;;33.20;31.25;99864.64;1640764;86;21424;-76
2021/06/21 16:12:08;;;;;;;7.97;4.90;;;;;;;33.16;31.38;99855.31;1640897;86;20931;-76
2021/06/21 16:14:34;;;;;;;12.10;5.97;;;;;;;33.11;31.53;99855.88;1640408;87;21499;-77
2021/06/21 16:17:00;;;;;;;6.65;4.97;;;;;;;33.03;31.72;99865.88;1640882;86;21420;-76
2021/06/21 16:19:28;;;;;;;11.43;6.28;;;;;;;32.89;31.91;99867.56;1640838;86;21430;-76
2021/06/21 16:21:55;;;;;;;14.90;5.97;;;;;;;32.84;32.08;99867.28;1640308;86;21443;-76
2021/06/21 16:24:21;;;;;;;8.53;6.03;;;;;;;32.77;32.24;99866.38;1640825;86;21400;-76
2021/06/21 16:26:48;;;;;;;10.23;6.37;;;;;;;32.74;32.43;99864.06;1640173;86;20971;-76
2021/06/21 16:29:14;;;;;;;7.92;6.47;;;;;;;32.70;32.56;99859.59;1590203;86;21043;-75
2021/06/21 16:31:40;;;;;;;10.72;6.67;;;;;;;32.71;32.73;99861.75;1637989;86;21413;-75
2021/06/21 16:34:07;;;;;;;10.95;8.05;;;;;;;32.70;32.86;99868.95;1638947;86;21499;-75
2021/06/21 16:36:33;;;;;;;17.17;7.90;;;;;;;32.70;33.06;99862.77;1636763;87;28854;-75
2021/06/21 16:39:00;;;;;;;13.83;7.87;;;;;;;32.69;33.19;99869.14;1635176;86;27939;-75
2021/06/21 16:41:26;;;;;;;16.37;7.78;;;;;;;32.69;33.36;99871.31;1634756;86;21563;-75
2021/06/21 16:43:53;;;;;;;14.05;7.65;;;;;;;32.66;33.52;99885.06;1636460;86;21017;-74
2021/06/21 16:46:19;;;;;;;9.70;6.90;;;;;;;32.65;33.76;99891.44;1636199;86;21507;-74
2021/06/21 16:48:48;;;;;;;8.53;6.62;;;;;;;32.49;34.07;99912.52;1634457;87;21618;-75
2021/06/21 16:51:14;;;;;;;12.73;7.70;;;;;;;32.49;34.07;99912.52;1616001;86;21852;-76
2021/06/21 16:53:40;;;;;;;8.75;7.95;;;;;;;32.38;34.12;99923.67;1636465;86;21527;-76
2021/06/21 16:56:08;;;;;;;12.85;7.90;;;;;;;32.23;34.32;99926.31;1627994;86;21005;-76
2021/06/21 16:58:35;;;;;;;10.70;7.65;;;;;;;32.11;34.52;99919.73;1629518;87;20938;-76
2021/06/21 17:01:01;;;;;;;;;;;;;;;31.96;34.74;99926.04;1645708;86;20944;-76
2021/06/21 17:03:29;;;;;;;9.83;8.83;;;;;;;31.86;35.46;99926.28;1642336;86;20502;-76
2021/06/21 17:05:55;;;;;;;8.88;8.08;;;;;;;31.77;35.13;99931.36;1639338;86;21805;-77
2021/06/21 17:08:22;;;;;;;10.05;8.83;;;;;;;31.64;35.34;99933.78;1638449;86;25862;-77
2021/06/21 17:10:48;;;;;;;9.00;8.10;;;;;;;31.54;35.63;99937.52;1639637;85;21598;-77
2021/06/21 17:13:15;;;;;;;;;;;;;;;31.45;35.71;99949.76;1643064;86;20999;-77
2021/06/21 17:15:41;;;;;;;;;;;;;;;31.36;36.49;99948.13;1633766;86;20142;-77
2021/06/21 17:18:07;;;;;;;12.47;9.80;;;;;;;31.28;36.70;99947.67;1599047;88;20202;-77
2021/06/21 17:20:34;;;;;;;14.53;9.40;;;;;;;31.17;36.32;99949.42;1628344;87;21498;-77
2021/06/21 17:23:03;;;;;;;;;;;;;;;31.05;36.54;99943.59;1628634;88;20965;-77
2021/06/21 17:25:31;;;;;;;15.25;9.63;;;;;;;30.97;37.18;99944.12;1628122;87;20598;-77
2021/06/21 17:27:58;;;;;;;14.35;9.40;;;;;;;30.85;36.97;99949.83;1629324;87;21887;-77
2021/06/21 17:30:26;;;;;;;12.65;9.38;;;;;;;30.72;37.16;99954.03;1629889;88;21467;-77
2021/06/21 17:32:54;;;;;;;10.20;9.33;;;;;;;30.63;37.38;99957.25;1627394;87;21547;-77
2021/06/21 17:35:21;;;;;;;16.02;9.88;;;;;;;30.55;37.57;99956.72;1630076;87;20890;-77
2021/06/21 17:37:52;;;;;;;13.53;10.03;;;;;;;30.50;37.81;99953.73;1629115;87;21055;-77
2021/06/21 17:40:19;;;;;;;11.63;10.23;;;;;;;30.45;38.00;99949.39;1596274;86;21495;-77
2021/06/21 17:42:47;;;;;;;19.10;11.08;;;;;;;30.35;38.20;99944.73;1624853;86;21570;-76
2021/06/21 17:45:16;;;;;;;14.35;11.03;;;;;;;30.32;38.43;99937.57;1624037;87;21625;-76
2021/06/21 17:47:43;;;;;;;14.23;11.18;;;;;;;30.31;38.57;99944.73;1634308;87;21363;-77
2021/06/21 17:50:12;;;;;;;12.82;10.80;;;;;;;30.28;38.81;99942.41;1613168;88;21478;-77
2021/06/21 17:52:38;;;;;;;13.72;10.80;;;;;;;30.27;39.01;99941.58;1629195;87;20951;-77
2021/06/21 17:55:10;;;;;;;13.22;10.35;;;;;;;30.25;39.19;99942.73;1621826;86;21395;-77
2021/06/21 17:57:39;;;;;;;11.78;10.53;;;;;;;30.26;39.38;99943.08;1621636;86;20972;-77
2021/06/21 18:00:10;;;;;;;17.52;9.95;;;;;;;30.24;39.53;99941.91;1632579;86;20922;-76
2021/06/21 18:02:39;;;;;;;14.93;9.90;;;;;;;30.22;39.71;99945.74;1643256;85;21572;-76
2021/06/21 18:05:06;;;;;;;14.20;10.32;;;;;;;30.17;39.87;99940.91;1638499;85;21006;-76
2021/06/21 18:07:33;;;;;;;14.00;10.38;;;;;;;30.13;40.02;99938.77;1624905;87;20985;-76
2021/06/21 18:10:01;;;;;;;11.95;10.45;;;;;;;30.11;40.24;99937.60;1639588;85;21552;-76
2021/06/21 18:12:27;;;;;;;11.25;10.03;;;;;;;30.10;40.40;99932.44;1637897;85;20997;-77
2021/06/21 18:14:54;;;;;;;12.25;9.78;;;;;;;30.08;40.56;99937.94;1613385;87;20902;-76
2021/06/21 18:17:20;;;;;;;13.40;10.60;;;;;;;30.06;40.72;99931.94;1625927;86;21361;-76
2021/06/21 18:19:46;;;;;;;12.18;9.88;;;;;;;30.02;40.90;99933.27;1629123;86;20983;-76
2021/06/21 18:22:13;;;;;;;14.07;11.03;;;;;;;29.97;41.05;99932.40;1639462;85;20961;-76
2021/06/21 18:24:43;;;;;;;14.38;10.82;;;;;;;29.92;41.25;99933.39;1638969;85;20975;-76
2021/06/21 18:27:10;;;;;;;16.75;10.88;;;;;;;29.87;41.38;99933.05;1608022;87;108714;-76
2021/06/21 18:29:36;;;;;;;16.00;10.60;;;;;;;29.74;41.56;99931.38;1626132;86;20936;-76
2021/06/21 18:32:08;;;;;;;19.30;11.00;;;;;;;29.65;41.78;99931.86;1630902;86;21041;-76
2021/06/21 18:34:33;;;;;;;12.23;11.08;;;;;;;29.57;41.88;99935.86;1637312;86;21393;-76
2021/06/21 18:36:59;;;;;;;16.40;10.85;;;;;;;29.48;42.08;99939.50;1630835;86;20975;-76
2021/06/21 18:39:25;;;;;;;12.65;11.45;;;;;;;29.40;42.25;99937.28;1627962;86;21046;-76
2021/06/21 18:41:52;;;;;;;12.63;11.28;;;;;;;29.33;42.42;99942.42;1632927;86;20969;-76
2021/06/21 18:44:18;;;;;;;12.33;11.00;;;;;;;29.28;42.53;99938.08;1630589;86;20953;-76
2021/06/21 18:46:44;;;;;;;17.55;11.18;;;;;;;29.14;42.64;99937.34;1625802;86;20942;-76
2021/06/21 18:49:11;;;;;;;14.47;11.60;;;;;;;28.89;42.97;99930.61;1640085;87;20950;-76
2021/06/21 18:51:37;;;;;;;15.98;10.50;;;;;;;28.85;43.23;99928.42;1642143;85;21013;-76
2021/06/21 18:54:04;;;;;;;16.25;11.60;;;;;;;28.84;43.37;99932.91;1641124;85;21404;-74
2021/06/21 18:56:30;;;;;;;14.53;11.65;;;;;;;28.81;43.50;99931.87;1632586;85;20938;-74
2021/06/21 18:58:56;;;;;;;14.13;11.45;;;;;;;28.79;43.65;99931.69;1611486;88;20971;-74
2021/06/21 19:01:22;;;;;;;17.12;12.33;;;;;;;28.75;43.83;99932.50;1625130;86;21460;-74
2021/06/21 19:03:49;;;;;;;13.10;11.85;;;;;;;28.73;43.97;99938.47;1622359;86;20972;-74
2021/06/21 19:06:15;;;;;;;;;;;;;;;28.70;44.09;99938.78;1641456;86;20981;-74
2021/06/21 19:08:41;;;;;;;63.23;13.90;;;;;;;28.64;44.87;99942.08;1611525;87;20622;-74
2021/06/21 19:11:08;;;;;;;28.10;11.68;;;;;;;28.57;44.42;99944.55;1615612;86;20952;-74
2021/06/21 19:13:34;;;;;;;117.82;17.75;;;;;;;28.53;44.57;99946.35;1612188;87;21194;-73
2021/06/21 19:16:00;;;;;;;69.65;15.00;;;;;;;28.43;44.72;99949.11;1623587;86;21086;-74
2021/06/21 19:18:27;;;;;;;37.28;13.20;;;;;;;28.38;44.86;99944.75;1603441;86;21137;-74
2021/06/21 19:20:53;;;;;;;30.12;13.78;;;;;;;28.34;45.03;99956.19;1626981;87;21069;-74
2021/06/21 19:23:19;;;;;;;32.17;13.40;;;;;;;28.30;45.12;99956.66;1631157;85;21108;-74
2021/06/21 19:25:46;;;;;;;21.95;14.45;;;;;;;28.20;45.27;99956.70;1624445;87;21085;-74
2021/06/21 19:28:14;;;;;;;66.35;17.65;;;;;;;28.12;45.47;99957.13;1623113;87;21077;-74
2021/06/21 19:30:43;;;;;;;36.35;20.15;;;;;;;28.02;45.65;99957.24;1627745;87;21144;-74
2021/06/21 19:33:10;;;;;;;40.25;22.70;;;;;;;27.95;45.84;99962.33;1612680;88;20907;-74
2021/06/21 19:35:40;;;;;;;40.50;21.50;;;;;;;27.90;46.02;99974.40;1629513;86;20894;-74
2021/06/21 19:38:10;;;;;;;44.13;21.93;;;;;;;27.87;46.19;99976.03;1633313;86;20910;-74
2021/06/21 19:40:38;;;;;;;37.33;20.62;;;;;;;27.88;46.34;99980.36;1631989;87;20958;-74
2021/06/21 19:43:05;;;;;;;52.00;17.40;;;;;;;27.87;46.43;99984.84;1632906;87;20958;-74
2021/06/21 19:45:32;;;;;;;37.45;17.02;;;;;;;27.85;46.62;99982.82;1621467;87;20978;-73
2021/06/21 19:47:59;;;;;;;46.23;17.62;;;;;;;27.60;46.72;99960.96;1631587;87;20917;-73
2021/06/21 19:50:31;;;;;;;43.63;18.82;;;;;;;27.67;46.92;99989.44;1642015;87;20963;-73
2021/06/21 19:52:54;;;;;;;36.15;18.60;;;;;;;27.66;47.07;99990.42;1639941;86;20937;-74
2021/06/21 19:55:20;;;;;;;37.20;19.87;;;;;;;27.63;47.16;99996.03;1637469;86;20878;-74
2021/06/21 19:57:51;;;;;;;37.55;19.57;;;;;;;27.61;47.32;100000.66;1643383;87;20986;-74
2021/06/21 20:00:19;;;;;;;38.63;18.35;;;;;;;27.57;47.48;99995.27;1617392;86;20978;-74
2021/06/21 20:02:46;;;;;;;26.77;17.05;;;;;;;27.55;47.56;99987.97;1637192;86;20874;-74
2021/06/21 20:05:14;;;;;;;33.85;18.42;;;;;;;27.52;47.69;99987.44;1632646;87;20968;-74
2021/06/21 20:07:41;;;;;;;29.23;17.60;;;;;;;27.49;47.82;99987.73;1630840;86;20989;-74
2021/06/21 20:10:08;;;;;;;31.60;17.05;;;;;;;27.35;48.02;99976.61;1639323;87;20926;-74
2021/06/21 20:12:35;;;;;;;31.37;17.67;;;;;;;27.23;48.44;99972.48;1642544;87;20906;-74
2021/06/21 20:15:01;;;;;;;27.48;16.32;;;;;;;27.23;48.44;99972.48;1614760;88;20963;-73
2021/06/21 20:17:28;;;;;;;34.63;17.30;;;;;;;27.32;48.46;99990.19;1607841;87;21435;-73
2021/06/21 20:19:54;;;;;;;33.90;16.55;;;;;;;27.30;48.54;99987.33;1609611;87;20967;-73
2021/06/21 20:22:20;;;;;;;36.77;17.20;;;;;;;27.28;48.67;99989.30;1615464;88;21499;-73
2021/06/21 20:24:47;;;;;;;26.90;17.37;;;;;;;27.25;48.79;99985.61;1632335;87;21356;-73
2021/06/21 20:27:13;;;;;;;25.50;16.52;;;;;;;27.21;48.88;99992.19;1631767;87;21102;-73
2021/06/21 20:29:40;;;;;;;29.32;16.40;;;;;;;27.16;49.02;99992.63;1631877;87;21587;-73
2021/06/21 20:32:07;;;;;;;23.32;17.05;;;;;;;27.14;49.14;99992.42;1632889;86;21104;-73
2021/06/21 20:34:42;;;;;;;18.87;15.75;;;;;;;26.93;49.24;99958.14;1633751;86;21090;-74
2021/06/21 20:37:02;;;;;;;26.60;16.62;;;;;;;27.09;49.37;99990.70;1633394;86;20962;-74
2021/06/21 20:39:28;;;;;;;21.75;16.12;;;;;;;27.06;49.49;100001.11;1630327;87;20942;-74
2021/06/21 20:41:55;;;;;;;19.87;16.27;;;;;;;27.03;49.63;99990.30;1627764;87;21003;-74
2021/06/21 20:44:22;;;;;;;18.82;15.15;;;;;;;27.01;49.75;99990.97;1632045;86;21092;-74
2021/06/21 20:46:47;;;;;;;;;;;;;;;27.00;49.82;99989.78;1634534;86;21063;-74
2021/06/21 20:49:14;;;;;;;24.25;15.30;;;;;;;26.98;50.53;99988.59;1645164;86;20221;-74
2021/06/21 20:51:40;;;;;;;20.30;15.15;;;;;;;26.96;50.01;99991.05;1618933;88;21049;-74
2021/06/21 20:54:08;;;;;;;22.90;15.98;;;;;;;26.95;50.14;99986.69;1632685;87;21345;-74
2021/06/21 20:56:34;;;;;;;27.02;16.50;;;;;;;26.93;50.23;99979.37;1644533;86;21107;-74
2021/06/21 20:59:00;;;;;;;28.42;16.27;;;;;;;26.89;50.30;99984.13;1649989;86;21151;-74
2021/06/21 21:01:27;;;;;;;24.95;16.93;;;;;;;26.87;50.42;99987.91;1652287;86;21117;-74
2021/06/21 21:03:54;;;;;;;21.90;16.20;;;;;;;26.85;50.54;99985.88;1648329;86;20971;-74
2021/06/21 21:06:21;;;;;;;24.92;17.17;;;;;;;26.83;50.63;99983.38;1651695;86;20955;-74
2021/06/21 21:08:47;;;;;;;;;;;;;;;26.81;50.72;99983.17;1648687;86;21404;-74
2021/06/21 21:11:14;;;;;;;29.65;15.53;;;;;;;26.80;51.31;99979.68;1659560;86;20124;-74
2021/06/21 21:13:40;;;;;;;35.50;18.10;;;;;;;26.79;50.91;99979.83;1658936;86;20933;-74
2021/06/21 21:16:07;;;;;;;30.62;17.52;;;;;;;26.75;50.97;99981.92;1659574;86;21049;-74
2021/06/21 21:18:33;;;;;;;52.25;18.65;;;;;;;26.70;51.05;99982.36;1659295;86;20945;-74
2021/06/21 21:21:00;;;;;;;32.25;17.40;;;;;;;26.65;51.15;99981.95;1637248;86;20995;-74
2021/06/21 21:23:26;;;;;;;53.38;18.62;;;;;;;26.60;51.27;99980.70;1647785;86;20934;-74
2021/06/21 21:25:52;;;;;;;77.37;21.20;;;;;;;26.46;51.35;99983.82;1615727;87;21014;-74
2021/06/21 21:28:26;;;;;;;41.85;17.73;;;;;;;26.40;51.58;99987.88;1643538;86;21321;-74
2021/06/21 21:30:47;;;;;;;76.70;18.92;;;;;;;26.39;51.67;99982.22;1649102;86;20922;-74
2021/06/21 21:33:14;;;;;;;51.42;18.65;;;;;;;26.37;51.77;99981.53;1646932;86;20937;-74
2021/06/21 21:35:40;;;;;;;36.03;17.17;;;;;;;26.33;51.85;99982.30;1645055;86;21068;-74
2021/06/21 21:38:06;;;;;;;43.63;16.97;;;;;;;26.29;51.91;99984.84;1644709;86;20931;-74
2021/06/21 21:40:32;;;;;;;28.15;15.95;;;;;;;26.25;52.03;99984.78;1641335;86;20959;-74
2021/06/21 21:42:59;;;;;;;22.48;16.23;;;;;;;26.23;52.10;99988.55;1642916;86;20923;-74
2021/06/21 21:45:25;;;;;;;36.15;16.70;;;;;;;26.11;52.19;99986.52;1613217;86;21024;-74
2021/06/21 21:47:59;;;;;;;25.27;15.98;;;;;;;26.07;52.35;99985.13;1646954;86;20922;-74
2021/06/21 21:50:21;;;;;;;24.65;16.35;;;;;;;26.06;52.42;99991.40;1641774;86;20932;-74
2021/06/21 21:52:47;;;;;;;28.25;16.17;;;;;;;26.02;52.46;99998.78;1644158;86;20962;-74
2021/06/21 21:55:23;;;;;;;21.62;16.27;;;;;;;25.98;52.57;100000.55;1643602;86;20990;-75
2021/06/21 21:57:51;;;;;;;23.52;16.25;;;;;;;25.91;52.63;99996.30;1650661;86;20986;-75
2021/06/21 22:00:20;;;;;;;22.45;16.70;;;;;;;25.83;52.79;100000.12;1650835;86;21021;-74
2021/06/21 22:02:46;;;;;;;21.37;17.27;;;;;;;25.78;52.87;99997.52;1645596;86;21380;-74
2021/06/21 22:05:13;;;;;;;23.62;18.40;;;;;;;25.75;53.00;99995.98;1603325;86;20943;-74
2021/06/21 22:07:40;;;;;;;24.52;17.95;;;;;;;25.71;53.09;99995.42;1648283;86;20963;-74
2021/06/21 22:10:08;;;;;;;25.92;17.12;;;;;;;25.68;53.20;99997.50;1647631;86;21044;-75
2021/06/21 22:12:34;;;;;;;25.10;17.65;;;;;;;25.62;53.32;99998.02;1644320;86;21054;-74
2021/06/21 22:15:00;;;;;;;22.13;18.07;;;;;;;25.57;53.42;100001.06;1647089;86;21154;-74
2021/06/21 22:17:27;;;;;;;27.80;19.20;;;;;;;25.51;53.49;100001.61;1644782;86;21065;-74
2021/06/21 22:19:53;;;;;;;19.52;17.45;;;;;;;25.49;53.58;100000.91;1645582;86;21086;-74
2021/06/21 22:22:19;;;;;;;21.15;18.12;;;;;;;25.45;53.67;99996.05;1650341;86;21153;-74
2021/06/21 22:24:46;;;;;;;20.55;18.50;;;;;;;25.40;53.74;100000.41;1644443;86;21541;-74
2021/06/21 22:27:12;;;;;;;20.57;18.25;;;;;;;25.34;53.82;99988.55;1648253;86;20977;-74
2021/06/21 22:29:39;;;;;;;21.23;18.65;;;;;;;25.29;53.92;99992.09;1646180;86;21122;-74